createdAt,value
2023-04-27T00:01:52.896Z,19.60
2023-04-27T00:04:21.258Z,13.30
2023-04-27T00:06:49.575Z,17.20
2023-04-27T00:09:19.188Z,17.07
2023-04-27T00:11:47.499Z,16.10
2023-04-27T00:14:15.682Z,20.00
2023-04-27T00:16:44.133Z,19.53
2023-04-27T00:19:13.980Z,17.13
2023-04-27T00:21:42.773Z,21.83
2023-04-27T00:24:10.977Z,20.27
2023-04-27T00:26:40.550Z,21.07
2023-04-27T00:29:08.775Z,22.13
2023-04-27T00:31:37.003Z,16.17
2023-04-27T00:34:05.141Z,18.23
2023-04-27T00:36:35.203Z,21.73
2023-04-27T00:39:06.511Z,24.13
2023-04-27T00:41:37.687Z,19.63
2023-04-27T00:44:07.545Z,16.93
2023-04-27T00:46:36.399Z,19.50
2023-04-27T00:49:05.325Z,21.77
2023-04-27T00:51:33.488Z,21.93
2023-04-27T00:54:02.680Z,20.73
2023-04-27T00:56:30.977Z,15.90
2023-04-27T00:58:59.318Z,21.80
2023-04-27T01:01:30.395Z,15.07
2023-04-27T01:03:58.843Z,15.77
2023-04-27T01:06:28.264Z,16.73
2023-04-27T01:08:56.390Z,14.63
2023-04-27T01:11:24.613Z,20.17
2023-04-27T01:13:53.211Z,14.20
2023-04-27T01:16:21.605Z,16.13
2023-04-27T01:18:51.169Z,17.03
2023-04-27T01:21:19.333Z,17.43
2023-04-27T01:23:48.863Z,20.13
2023-04-27T01:26:17.202Z,25.13
2023-04-27T01:28:45.847Z,14.00
2023-04-27T01:31:15.056Z,18.33
2023-04-27T01:33:43.606Z,19.27
2023-04-27T01:36:12.060Z,14.87
2023-04-27T01:38:40.287Z,18.97
2023-04-27T01:41:10.111Z,13.57
2023-04-27T01:43:38.260Z,16.57
2023-04-27T01:46:07.794Z,18.03
2023-04-27T01:48:36.241Z,15.60
2023-04-27T01:51:04.826Z,22.43
2023-04-27T01:53:33.127Z,20.97
2023-04-27T01:56:01.495Z,16.53
2023-04-27T01:58:31.037Z,20.20
2023-04-27T02:00:59.168Z,16.13
2023-04-27T02:03:27.585Z,19.23
2023-04-27T02:05:55.937Z,18.20
2023-04-27T02:08:24.118Z,19.57
2023-04-27T02:10:52.489Z,19.77
2023-04-27T02:13:21.254Z,18.03
2023-04-27T02:15:50.872Z,22.20
2023-04-27T02:18:20.205Z,18.40
2023-04-27T02:20:48.401Z,21.97
2023-04-27T02:23:16.704Z,24.20
2023-04-27T02:25:46.962Z,22.03
2023-04-27T02:28:15.458Z,19.90
2023-04-27T02:30:44.404Z,23.30
2023-04-27T02:33:13.976Z,16.63
2023-04-27T02:35:42.141Z,14.03
2023-04-27T02:38:10.417Z,19.17
2023-04-27T02:40:38.605Z,17.30
2023-04-27T02:43:06.798Z,18.17
2023-04-27T02:45:38.552Z,16.47
2023-04-27T02:48:07.181Z,15.20
2023-04-27T02:50:42.918Z,15.97
2023-04-27T02:53:11.264Z,21.03
2023-04-27T02:55:39.659Z,18.93
2023-04-27T02:58:07.855Z,15.13
2023-04-27T03:00:36.010Z,17.27
2023-04-27T03:03:04.390Z,19.63
2023-04-27T03:05:32.837Z,14.10
2023-04-27T03:08:02.467Z,17.07
2023-04-27T03:10:30.716Z,21.57
2023-04-27T03:12:58.886Z,17.03
2023-04-27T03:15:27.062Z,20.47
2023-04-27T03:17:55.533Z,18.50
2023-04-27T03:20:23.747Z,17.37
2023-04-27T03:22:51.996Z,17.27
2023-04-27T03:25:22.396Z,16.30
2023-04-27T03:27:50.908Z,17.40
2023-04-27T03:30:19.170Z,24.90
2023-04-27T03:32:47.884Z,15.43
2023-04-27T03:35:16.488Z,21.03
2023-04-27T03:37:46.137Z,19.30
2023-04-27T03:40:15.534Z,17.03
2023-04-27T03:42:45.104Z,15.83
2023-04-27T03:45:18.604Z,22.73
2023-04-27T03:47:46.844Z,16.80
2023-04-27T03:50:15.065Z,20.23
2023-04-27T03:52:43.218Z,16.03
2023-04-27T03:55:11.583Z,17.40
2023-04-27T03:57:39.810Z,17.07
2023-04-27T04:00:12.953Z,14.70
2023-04-27T04:02:41.263Z,17.93
2023-04-27T04:05:10.186Z,18.97
2023-04-27T04:07:38.418Z,17.10
2023-04-27T04:10:07.789Z,13.60
2023-04-27T04:12:36.065Z,18.60
2023-04-27T04:15:04.871Z,22.63
2023-04-27T04:17:34.568Z,19.20
2023-04-27T04:20:03.075Z,15.30
2023-04-27T04:22:31.217Z,16.83
2023-04-27T04:24:59.401Z,16.63
2023-04-27T04:27:27.554Z,18.13
2023-04-27T04:29:55.699Z,17.97
2023-04-27T04:32:24.516Z,17.77
2023-04-27T04:34:54.254Z,19.10
2023-04-27T04:37:23.166Z,20.27
2023-04-27T04:39:51.425Z,16.47
2023-04-27T04:42:19.731Z,21.40
2023-04-27T04:44:47.913Z,19.27
2023-04-27T04:47:16.219Z,19.33
2023-04-27T04:49:44.394Z,27.63
2023-04-27T04:52:13.955Z,32.77
2023-04-27T04:54:42.107Z,21.00
2023-04-27T04:57:10.470Z,24.40
2023-04-27T04:59:38.689Z,24.40
2023-04-27T05:02:06.850Z,22.13
2023-04-27T05:04:35.137Z,24.63
2023-04-27T05:07:04.653Z,22.63
2023-04-27T05:09:34.272Z,18.00
2023-04-27T05:12:03.256Z,20.87
2023-04-27T05:14:31.553Z,21.33
2023-04-27T05:16:59.832Z,22.57
2023-04-27T05:19:31.115Z,19.37
2023-04-27T05:21:59.602Z,22.90
2023-04-27T05:24:28.107Z,25.27
2023-04-27T05:26:57.703Z,25.60
2023-04-27T05:29:27.300Z,25.93
2023-04-27T05:31:55.873Z,23.27
2023-04-27T05:34:24.062Z,20.57
2023-04-27T05:36:52.227Z,23.43
2023-04-27T05:39:20.653Z,21.40
2023-04-27T05:41:49.082Z,28.07
2023-04-27T05:44:18.617Z,29.50
2023-04-27T05:46:46.858Z,19.53
2023-04-27T05:49:15.280Z,23.07
2023-04-27T05:51:43.808Z,18.60
2023-04-27T05:54:12.009Z,18.47
2023-04-27T05:56:40.146Z,20.23
2023-04-27T05:59:08.333Z,19.33
2023-04-27T06:01:38.264Z,22.00
2023-04-27T06:04:07.152Z,24.63
2023-04-27T06:06:36.188Z,19.47
2023-04-27T06:09:04.533Z,21.77
2023-04-27T06:11:32.720Z,21.47
2023-04-27T06:14:00.990Z,20.67
2023-04-27T06:16:29.272Z,23.33
2023-04-27T06:18:58.855Z,21.80
2023-04-27T06:21:27.147Z,19.77
2023-04-27T06:23:55.316Z,24.80
2023-04-27T06:26:23.527Z,23.37
2023-04-27T06:28:51.729Z,21.90
2023-04-27T06:31:19.994Z,22.40
2023-04-27T06:33:48.222Z,25.00
2023-04-27T06:36:17.860Z,21.77
2023-04-27T06:38:46.444Z,21.47
2023-04-27T06:41:14.673Z,19.93
2023-04-27T06:43:42.817Z,22.57
2023-04-27T06:46:11.088Z,20.60
2023-04-27T06:48:39.294Z,24.63
2023-04-27T06:51:07.755Z,21.47
2023-04-27T06:53:37.961Z,20.77
2023-04-27T06:56:07.190Z,22.07
2023-04-27T06:58:35.376Z,17.70
2023-04-27T07:01:04.090Z,17.20
2023-04-27T07:03:35.547Z,18.93
2023-04-27T07:06:03.938Z,15.80
2023-04-27T07:08:32.223Z,12.60
2023-04-27T07:11:01.822Z,16.23
2023-04-27T07:13:30.827Z,19.20
2023-04-27T07:15:59.012Z,18.27
2023-04-27T07:18:28.228Z,17.83
2023-04-27T07:20:57.974Z,12.13
2023-04-27T07:23:26.422Z,16.43
2023-04-27T07:25:54.824Z,14.97
2023-04-27T07:28:24.408Z,17.07
2023-04-27T07:30:52.746Z,15.17
2023-04-27T07:33:22.250Z,18.50
2023-04-27T07:35:51.507Z,15.20
2023-04-27T07:38:19.663Z,17.30
2023-04-27T07:41:03.074Z,15.23
2023-04-27T07:43:33.221Z,14.57
2023-04-27T07:46:01.455Z,11.70
2023-04-27T07:48:30.821Z,13.03
2023-04-27T07:50:59.060Z,12.60
2023-04-27T07:53:27.412Z,13.10
2023-04-27T07:55:55.605Z,15.55
2023-04-27T07:58:23.863Z,12.17
2023-04-27T08:00:53.405Z,15.37
2023-04-27T08:03:22.910Z,15.73
2023-04-27T08:05:51.683Z,8.77
2023-04-27T08:08:20.056Z,14.40
2023-04-27T08:10:48.249Z,10.63
2023-04-27T08:13:16.720Z,10.33
2023-04-27T08:15:44.868Z,8.83
2023-04-27T08:18:14.734Z,8.30
2023-04-27T08:20:42.930Z,8.27
2023-04-27T08:23:11.066Z,8.43
2023-04-27T08:25:39.234Z,11.10
2023-04-27T08:28:07.413Z,9.00
2023-04-27T08:30:35.670Z,10.60
2023-04-27T08:33:03.892Z,11.43
2023-04-27T08:35:33.536Z,9.20
2023-04-27T08:38:01.660Z,13.40
2023-04-27T08:40:29.987Z,11.30
2023-04-27T08:42:59.391Z,10.07
2023-04-27T08:45:28.761Z,11.10
2023-04-27T08:47:57.179Z,7.15
2023-04-27T08:50:25.432Z,7.82
2023-04-27T08:52:55.084Z,6.63
2023-04-27T08:55:23.702Z,7.87
2023-04-27T08:58:00.349Z,9.20
2023-04-27T09:00:38.864Z,12.25
2023-04-27T09:03:07.994Z,10.43
2023-04-27T09:05:36.751Z,6.90
2023-04-27T09:08:08.349Z,8.73
2023-04-27T09:10:47.035Z,7.35
2023-04-27T09:13:15.444Z,8.03
2023-04-27T09:15:46.403Z,7.67
2023-04-27T09:18:18.327Z,16.57
2023-04-27T09:20:47.322Z,9.43
2023-04-27T09:23:29.123Z,4.83
2023-04-27T09:25:57.936Z,5.60
2023-04-27T09:28:27.773Z,7.90
2023-04-27T09:30:58.415Z,8.93
2023-04-27T09:33:27.873Z,9.47
2023-04-27T09:35:56.662Z,12.97
2023-04-27T09:38:25.428Z,9.03
2023-04-27T09:40:56.625Z,9.10
2023-04-27T09:43:26.689Z,6.60
2023-04-27T09:45:55.533Z,7.47
2023-04-27T09:48:24.511Z,7.43
2023-04-27T09:50:54.793Z,7.57
2023-04-27T09:53:27.657Z,6.65
2023-04-27T09:56:10.346Z,12.63
2023-04-27T09:58:56.131Z,9.40
2023-04-27T10:01:30.774Z,12.57
2023-04-27T10:04:10.305Z,12.40
2023-04-27T10:06:58.647Z,8.97
2023-04-27T10:09:27.940Z,11.77
2023-04-27T10:11:57.788Z,7.87
2023-04-27T10:14:26.458Z,9.17
2023-04-27T10:16:55.798Z,6.23
2023-04-27T10:19:25.149Z,6.63
2023-04-27T10:21:57.980Z,8.67
2023-04-27T10:24:39.221Z,10.10
2023-04-27T10:27:11.283Z,5.83
2023-04-27T10:29:41.949Z,8.63
2023-04-27T10:32:12.974Z,6.93
2023-04-27T10:34:42.631Z,8.97
2023-04-27T10:37:12.576Z,8.67
2023-04-27T10:39:48.679Z,7.30
2023-04-27T10:42:29.536Z,9.73
2023-04-27T10:44:59.163Z,5.53
2023-04-27T10:47:38.979Z,8.20
2023-04-27T10:50:08.963Z,6.07
2023-04-27T10:52:37.136Z,5.65
2023-04-27T10:55:18.652Z,7.93
2023-04-27T10:57:52.807Z,6.53
2023-04-27T11:00:25.395Z,4.65
2023-04-27T11:02:54.850Z,4.40
2023-04-27T11:05:24.777Z,6.30
2023-04-27T11:07:53.426Z,6.25
2023-04-27T11:10:22.136Z,6.53
2023-04-27T11:12:51.735Z,9.18
2023-04-27T11:15:20.019Z,7.05
2023-04-27T11:17:48.308Z,6.88
2023-04-27T11:20:25.197Z,5.88
2023-04-27T11:22:53.386Z,5.35
2023-04-27T11:25:29.129Z,7.25
2023-04-27T11:27:58.717Z,3.83
2023-04-27T11:30:27.183Z,4.40
2023-04-27T11:32:55.586Z,6.55
2023-04-27T11:35:34.583Z,6.30
2023-04-27T11:38:03.284Z,4.45
2023-04-27T11:40:32.376Z,5.60
2023-04-27T11:43:04.159Z,6.60
2023-04-27T11:45:32.337Z,4.27
2023-04-27T11:48:01.006Z,5.20
2023-04-27T11:50:29.281Z,4.28
2023-04-27T11:53:02.236Z,8.60
2023-04-27T11:55:31.238Z,3.03
2023-04-27T11:58:01.028Z,4.22
2023-04-27T12:00:29.219Z,5.45
2023-04-27T12:02:59.087Z,5.28
2023-04-27T12:05:27.822Z,4.78
2023-04-27T12:07:56.166Z,3.15
2023-04-27T12:10:24.317Z,9.43
2023-04-27T12:12:52.498Z,4.80
2023-04-27T12:15:22.074Z,4.15
2023-04-27T12:17:50.353Z,6.20
2023-04-27T12:20:18.634Z,9.80
2023-04-27T12:22:46.782Z,7.75
2023-04-27T12:25:15.142Z,5.55
2023-04-27T12:27:43.814Z,6.47
2023-04-27T12:30:12.542Z,5.15
2023-04-27T12:32:42.312Z,6.43
2023-04-27T12:35:11.283Z,8.38
2023-04-27T12:37:39.527Z,5.90
2023-04-27T12:40:10.003Z,4.75
2023-04-27T12:42:38.190Z,6.25
2023-04-27T12:45:07.469Z,4.03
2023-04-27T12:50:09.978Z,4.72
2023-04-27T12:52:38.247Z,4.32
2023-04-27T12:55:15.155Z,7.80
2023-04-27T12:57:46.513Z,6.68
2023-04-27T13:00:15.594Z,6.43
2023-04-27T13:02:45.052Z,10.70
2023-04-27T13:05:15.602Z,3.83
2023-04-27T13:07:43.765Z,6.68
2023-04-27T13:10:12.672Z,9.48
2023-04-27T13:12:40.824Z,4.15
2023-04-27T13:15:10.314Z,4.88
2023-04-27T13:17:38.488Z,6.07
2023-04-27T13:20:08.809Z,7.30
2023-04-27T13:22:39.678Z,6.78
2023-04-27T13:25:09.510Z,6.13
2023-04-27T13:27:37.863Z,5.40
2023-04-27T13:30:07.304Z,5.22
2023-04-27T13:32:35.513Z,5.88
2023-04-27T13:35:04.096Z,3.72
2023-04-27T13:37:32.476Z,7.40
2023-04-27T13:40:02.128Z,7.68
2023-04-27T13:42:30.325Z,5.18
2023-04-27T13:44:58.533Z,6.50
2023-04-27T13:47:29.231Z,5.15
2023-04-27T13:49:57.795Z,3.78
2023-04-27T13:52:26.161Z,4.07
2023-04-27T13:54:54.287Z,3.65
2023-04-27T13:57:23.815Z,5.95
2023-04-27T13:59:51.980Z,7.63
2023-04-27T14:02:20.533Z,4.35
2023-04-27T14:04:48.838Z,5.70
2023-04-27T14:07:17.089Z,5.68
2023-04-27T14:09:45.236Z,3.55
2023-04-27T14:12:13.674Z,5.80
2023-04-27T14:14:43.233Z,3.65
2023-04-27T14:17:11.361Z,5.53
2023-04-27T14:19:39.613Z,4.68
2023-04-27T14:22:09.393Z,2.78
2023-04-27T14:24:37.639Z,3.92
2023-04-27T14:27:05.838Z,6.93
2023-04-27T14:29:33.950Z,11.20
2023-04-27T14:32:04.182Z,5.97
2023-04-27T14:34:32.372Z,6.32
2023-04-27T14:37:00.674Z,6.50
2023-04-27T14:39:28.886Z,6.33
2023-04-27T14:41:57.279Z,12.50
2023-04-27T14:44:25.674Z,5.82
2023-04-27T14:46:54.161Z,4.78
2023-04-27T14:49:23.781Z,4.93
2023-04-27T14:51:52.400Z,4.60
2023-04-27T14:54:20.646Z,4.35
2023-04-27T14:56:48.780Z,4.18
2023-04-27T14:59:17.619Z,7.17
2023-04-27T15:01:45.902Z,7.35
2023-04-27T15:04:14.236Z,4.27
2023-04-27T15:06:43.843Z,9.27
2023-04-27T15:09:13.486Z,6.00
2023-04-27T15:11:41.864Z,5.85
2023-04-27T15:14:10.014Z,6.00
2023-04-27T15:16:38.305Z,8.23
2023-04-27T15:19:06.554Z,6.17
2023-04-27T15:21:35.005Z,6.90
2023-04-27T15:24:04.763Z,11.93
2023-04-27T15:26:32.934Z,8.65
2023-04-27T15:29:01.155Z,3.38
2023-04-27T15:31:29.328Z,9.05
2023-04-27T15:33:57.577Z,7.90
2023-04-27T15:36:28.376Z,11.80
2023-04-27T15:38:56.621Z,8.43
2023-04-27T15:41:26.250Z,11.00
2023-04-27T15:43:54.461Z,7.90
2023-04-27T15:46:22.709Z,5.47
2023-04-27T15:48:50.958Z,6.13
2023-04-27T15:51:19.099Z,12.47
2023-04-27T15:53:47.247Z,11.43
2023-04-27T15:56:16.296Z,6.90
2023-04-27T15:58:46.503Z,8.45
2023-04-27T16:01:14.747Z,7.20
2023-04-27T16:03:43.275Z,5.90
2023-04-27T16:06:11.656Z,6.37
2023-04-27T16:08:39.863Z,5.25
2023-04-27T16:11:08.066Z,11.80
2023-04-27T16:13:36.294Z,8.30
2023-04-27T16:16:06.283Z,10.27
2023-04-27T16:18:34.821Z,13.82
2023-04-27T16:21:04.034Z,7.23
2023-04-27T16:23:32.545Z,14.07
2023-04-27T16:26:00.824Z,10.67
2023-04-27T16:28:29.028Z,8.90
2023-04-27T16:30:57.220Z,6.20
2023-04-27T16:33:26.850Z,10.37
2023-04-27T16:35:55.052Z,9.68
2023-04-27T16:38:23.196Z,7.13
2023-04-27T16:40:52.666Z,15.00
2023-04-27T16:43:20.845Z,13.63
2023-04-27T16:45:48.990Z,16.17
2023-04-27T16:48:17.645Z,7.55
2023-04-27T16:50:48.126Z,8.93
2023-04-27T16:53:20.333Z,9.33
2023-04-27T16:55:48.584Z,8.52
2023-04-27T16:58:16.757Z,11.93
2023-04-27T17:00:44.995Z,10.55
2023-04-27T17:03:13.230Z,8.10
2023-04-27T17:05:41.467Z,8.20
2023-04-27T17:08:11.213Z,9.60
2023-04-27T17:10:39.435Z,8.32
2023-04-27T17:13:08.282Z,10.73
2023-04-27T17:15:36.970Z,8.55
2023-04-27T17:18:05.866Z,9.18
2023-04-27T17:20:34.239Z,8.30
2023-04-27T17:23:02.423Z,7.73
2023-04-27T17:25:32.196Z,8.33
2023-04-27T17:28:01.598Z,7.83
2023-04-27T17:30:30.058Z,10.43
2023-04-27T17:32:58.314Z,10.00
2023-04-27T17:35:26.822Z,9.73
2023-04-27T17:37:55.229Z,9.57
2023-04-27T17:40:23.617Z,6.68
2023-04-27T17:42:56.351Z,11.82
2023-04-27T17:45:26.491Z,7.13
2023-04-27T17:47:54.728Z,11.80
2023-04-27T17:50:23.144Z,11.23
2023-04-27T17:52:51.479Z,8.50
2023-04-27T17:55:20.255Z,11.40
2023-04-27T17:57:48.631Z,11.57
2023-04-27T18:00:19.335Z,14.27
2023-04-27T18:02:49.950Z,24.90
2023-04-27T18:05:18.659Z,14.70
2023-04-27T18:07:47.341Z,15.77
2023-04-27T18:10:15.832Z,13.90
2023-04-27T18:12:44.334Z,12.00
2023-04-27T18:15:13.018Z,19.43
2023-04-27T18:17:42.638Z,9.97
2023-04-27T18:20:11.628Z,7.83
2023-04-27T18:22:40.163Z,12.83
2023-04-27T18:25:09.895Z,12.30
2023-04-27T18:27:38.497Z,15.63
2023-04-27T18:30:08.784Z,22.63
2023-04-27T18:32:37.083Z,16.00
2023-04-27T18:35:07.642Z,16.57
2023-04-27T18:37:36.136Z,18.57
2023-04-27T18:40:05.891Z,19.37
2023-04-27T18:42:34.181Z,27.80
2023-04-27T18:45:02.700Z,20.27
2023-04-27T18:47:30.896Z,21.57
2023-04-27T18:49:59.076Z,19.47
2023-04-27T18:52:28.644Z,22.13
2023-04-27T18:54:57.015Z,20.97
2023-04-27T18:57:26.581Z,24.47
2023-04-27T18:59:54.810Z,18.73
2023-04-27T19:02:25.098Z,17.53
2023-04-27T19:05:10.420Z,21.80
2023-04-27T19:07:42.423Z,16.90
2023-04-27T19:10:12.571Z,17.30
2023-04-27T19:12:40.893Z,21.03
2023-04-27T19:15:09.818Z,18.57
2023-04-27T19:17:38.554Z,26.70
2023-04-27T19:20:08.335Z,23.47
2023-04-27T19:22:37.162Z,24.50
2023-04-27T19:25:08.132Z,20.40
2023-04-27T19:27:36.708Z,21.13
2023-04-27T19:30:05.690Z,19.70
2023-04-27T19:32:34.942Z,23.03
2023-04-27T19:35:03.606Z,22.60
2023-04-27T19:37:31.804Z,21.93
2023-04-27T19:40:00.429Z,19.67
2023-04-27T19:42:30.685Z,26.90
2023-04-27T19:44:59.044Z,18.07
2023-04-27T19:47:27.528Z,23.70
2023-04-27T19:49:58.431Z,23.70
2023-04-27T19:52:26.832Z,20.70
2023-04-27T19:54:55.861Z,22.23
2023-04-27T19:57:24.380Z,24.60
2023-04-27T19:59:54.158Z,27.17
2023-04-27T20:02:22.792Z,21.90
2023-04-27T20:04:51.260Z,27.47
2023-04-27T20:07:19.745Z,30.50
2023-04-27T20:09:48.147Z,31.13
2023-04-27T20:12:40.440Z,30.80
2023-04-27T20:15:06.807Z,27.80
2023-04-27T20:17:35.194Z,27.37
2023-04-27T20:20:07.250Z,26.00
2023-04-27T20:22:35.779Z,23.33
2023-04-27T20:25:04.222Z,26.73
2023-04-27T20:27:32.367Z,27.97
2023-04-27T20:30:00.630Z,22.43
2023-04-27T20:32:30.523Z,28.63
2023-04-27T20:34:59.712Z,24.73
2023-04-27T20:37:29.884Z,24.83
2023-04-27T20:39:59.680Z,24.80
2023-04-27T20:42:29.701Z,23.03
2023-04-27T20:45:02.345Z,23.00
2023-04-27T20:47:32.136Z,21.20
2023-04-27T20:50:00.363Z,25.43
2023-04-27T20:52:31.750Z,24.13
2023-04-27T20:55:01.819Z,24.33
2023-04-27T20:57:30.025Z,22.93
2023-04-27T20:59:58.154Z,25.67
2023-04-27T21:02:26.434Z,19.67
2023-04-27T21:04:56.083Z,26.37
2023-04-27T21:07:24.371Z,29.07
2023-04-27T21:09:52.535Z,21.07
2023-04-27T21:12:20.923Z,20.27
2023-04-27T21:14:49.063Z,25.13
2023-04-27T21:17:17.260Z,30.23
2023-04-27T21:19:45.555Z,30.97
2023-04-27T21:22:15.146Z,38.40
2023-04-27T21:24:43.337Z,32.20
2023-04-27T21:27:11.563Z,27.63
2023-04-27T21:29:39.788Z,27.27
2023-04-27T21:32:08.170Z,34.63
2023-04-27T21:34:36.337Z,28.60
2023-04-27T21:37:04.521Z,29.93
2023-04-27T21:39:34.138Z,39.03
2023-04-27T21:42:02.314Z,34.80
2023-04-27T21:44:30.560Z,38.73
2023-04-27T21:46:58.734Z,34.50
2023-04-27T21:49:27.243Z,38.40
2023-04-27T21:51:55.392Z,38.73
2023-04-27T21:54:23.554Z,39.43
2023-04-27T21:56:53.089Z,40.20
2023-04-27T21:59:21.610Z,38.67
2023-04-27T22:01:49.907Z,47.77
2023-04-27T22:04:18.417Z,39.40
2023-04-27T22:06:47.305Z,36.83
2023-04-27T22:09:16.558Z,41.47
2023-04-27T22:11:44.801Z,31.80
2023-04-27T22:14:14.614Z,38.40
2023-04-27T22:16:42.945Z,36.47
2023-04-27T22:19:12.515Z,32.10
2023-04-27T22:21:40.763Z,61.67
2023-04-27T22:24:09.035Z,33.20
2023-04-27T22:26:37.240Z,28.67
2023-04-27T22:29:05.412Z,29.13
2023-04-27T22:31:35.239Z,26.03
2023-04-27T22:34:04.511Z,29.47
2023-04-27T22:36:33.448Z,25.27
2023-04-27T22:39:01.806Z,21.43
2023-04-27T22:41:29.938Z,27.77
2023-04-27T22:43:58.108Z,28.03
2023-04-27T22:46:26.304Z,34.13
2023-04-27T22:48:55.896Z,21.80
2023-04-27T22:51:27.260Z,29.13
2023-04-27T22:53:55.534Z,22.00
2023-04-27T22:56:23.764Z,26.17
2023-04-27T22:58:51.933Z,26.07
2023-04-27T23:01:20.119Z,28.23
2023-04-27T23:03:48.359Z,22.27
2023-04-27T23:06:18.462Z,33.97
2023-04-27T23:08:47.089Z,39.43
2023-04-27T23:11:18.939Z,31.03
2023-04-27T23:13:48.162Z,29.10
2023-04-27T23:16:16.413Z,25.13
2023-04-27T23:18:44.578Z,32.83
2023-04-27T23:21:12.716Z,33.33
2023-04-27T23:23:42.254Z,29.47
2023-04-27T23:26:14.512Z,34.03
2023-04-27T23:28:42.962Z,37.17
2023-04-27T23:31:11.304Z,35.53
2023-04-27T23:33:39.509Z,34.60
2023-04-27T23:36:08.245Z,28.93
2023-04-27T23:38:36.604Z,32.77
2023-04-27T23:41:06.268Z,21.47
2023-04-27T23:43:35.153Z,17.57
2023-04-27T23:46:03.620Z,16.77
2023-04-27T23:48:31.764Z,17.97
2023-04-27T23:51:01.406Z,24.13
2023-04-27T23:53:29.697Z,21.03
2023-04-27T23:55:58.320Z,24.13
2023-04-27T23:58:28.008Z,22.63
